Latest Coastal Weather Observations for Montague Island

IDN60701

Issued at 2:41 pm EDT Wednesday 18 October 2017 (issued every 10 minutes, with the page automatically refreshed every 10 minutes)

About coastal observations | Map of coastal stations | Coastal observations for NSW | Marine services | Other Formats
Station Details ID: 069017 Name: MONTAGUE ISLAND LIGHTHOUSE Lat: -36.25 Lon: 150.23 Height: 52.0 m
Data from the previous 72 hours. | See also: Recent months at Montague Island
Date/Time
EDT
Temp
°C
Wind Pressure Rain since
9am
mm
Weather Cloud Vis
km
Sea
Height
m
Swell
Dir  Spd
kts
Gust
kts
hPa Trend Height
m
Period
s
Dir
18/02:30pm 19.7 NNE 18 21 1024.0 - 0.0 - - - - - - -
18/02:00pm 19.8 NNE 18 21 1024.5 - 0.0 - - - - - - -
18/01:30pm 19.7 NNE 17 21 1024.9 - 0.0 - - - - - - -
18/01:00pm 19.5 NNE 16 20 1025.1 - 0.0 - - - - - - -
18/12:30pm 19.8 NNE 15 19 1025.5 - 0.0 - - - - - - -
18/12:00pm 19.6 NNE 14 17 1025.8 - 0.0 - - - - - - -
18/11:30am 19.6 NNE 13 17 1026.2 - 0.0 - - - - - - -
18/11:00am 19.2 NNE 11 14 1026.5 - 0.0 - - - - - - -
18/10:30am 18.3 NNE 10 13 1026.8 - 0.0 - - - - - - -
18/10:00am 18.3 N 9 11 1026.9 - 0.0 - - - - - - -
18/09:30am 18.4 N 8 11 1026.9 - 0.0 - - - - - - -
18/09:00am 18.0 N 8 11 1026.9 - 0.0 - - - - - - -
18/08:30am 17.5 N 7 10 1026.6 - 0.0 - - - - - - -
18/08:00am 16.9 N 9 11 1026.5 - 0.0 - - - - - - -
18/07:30am 16.4 NNW 8 10 1026.5 - 0.0 - - - - - - -
18/07:00am 16.4 N 9 11 1026.3 - 0.0 - - - - - - -
18/06:30am 16.2 N 9 11 1026.0 - 0.0 - - - - - - -
18/06:00am 16.3 N 9 11 1025.7 - 0.0 - - - - - - -
18/05:30am 16.0 N 8 10 1025.7 - 0.0 - - - - - - -
18/05:00am 16.2 N 8 10 1025.6 - 0.0 - - - - - - -
18/04:30am 16.3 N 10 12 1025.6 - 0.0 - - - - - - -
18/04:00am 16.5 N 10 12 1025.4 - 0.0 - - - - - - -
18/03:30am 16.3 N 10 12 1025.4 - 0.0 - - - - - - -
18/03:00am 16.5 N 10 12 1025.3 - 0.0 - - - - - - -
18/02:30am 16.6 N 11 13 1025.5 - 0.0 - - - - - - -
18/02:00am 16.8 NNW 10 14 1025.8 - 0.0 - - - - - - -
18/01:30am 17.3 N 12 16 1025.9 - 0.0 - - - - - - -
18/01:00am 17.4 N 14 18 1026.0 - 0.0 - - - - - - -
18/12:30am 17.2 N 12 15 1026.2 - 0.0 - - - - - - -
18/12:00am 17.3 N 12 16 1026.5 - 0.0 - - - - - - -
 
Date/Time
EDT
Temp
°C
Wind Pressure Rain since
9am
mm
Weather Cloud Vis
km
Sea
Height
m
Swell
Dir  Spd
kts
Gust
kts
hPa Trend Height
m
Period
s
Dir
17/11:30pm 17.5 N 11 15 1026.8 - 0.0 - - - - - - -
17/11:00pm 17.6 N 11 14 1027.0 - 0.0 - - - - - - -
17/10:30pm 17.8 NNE 13 16 1026.9 - 0.0 - - - - - - -
17/10:00pm 17.8 NNE 12 15 1026.8 - 0.0 - - - - - - -
17/09:30pm 18.0 NNE 12 15 1027.0 - 0.0 - - - - - - -
17/09:00pm 18.0 NNE 13 16 1026.9 - 0.0 - - - - - - -
17/08:30pm 18.1 NNE 14 18 1026.6 - 0.0 - - - - - - -
17/08:00pm 18.1 NNE 13 16 1026.3 - 0.0 - - - - - - -
17/07:30pm 18.0 NNE 13 16 1025.9 - 0.0 - - - - - - -
17/07:00pm 18.1 NNE 14 17 1025.6 - 0.0 - - - - - - -
17/06:30pm 18.1 NNE 13 17 1025.3 - 0.0 - - - - - - -
17/06:00pm 18.3 NNE 14 18 1025.0 - 0.0 - - - - - - -
17/05:30pm 18.5 NNE 13 16 1025.0 - 0.0 - - - - - - -
17/05:00pm 18.8 NNE 13 15 1024.7 - 0.0 - - - - - - -
17/04:30pm 19.0 NNE 13 16 1024.4 - 0.0 - - - - - - -
17/04:00pm 19.4 NNE 13 16 1024.4 - 0.0 - - - - - - -
17/03:30pm 19.5 NNE 13 16 1024.5 - 0.0 - - - - - - -
17/03:00pm 19.8 NE 13 17 1024.8 - 0.0 - - - - - - -
17/02:30pm 19.8 NE 14 18 1025.1 - 0.0 - - - - - - -
17/02:00pm 19.7 NE 14 17 1025.5 - 0.0 - - - - - - -
17/01:30pm 19.8 NE 14 17 1025.6 - 0.0 - - - - - - -
17/01:00pm 19.6 NE 13 15 1026.2 - 0.0 - - - - - - -
17/12:30pm 19.2 NE 13 15 1026.5 - 0.0 - - - - - - -
17/12:00pm 19.3 NE 10 13 1026.9 - 0.0 - - - - - - -
17/11:30am 19.3 NE 11 13 1027.1 - 0.0 - - - - - - -
17/11:00am 19.1 NE 10 14 1027.4 - 0.0 - - - - - - -
17/10:30am 19.1 NNE 10 12 1027.5 - 0.0 - - - - - - -
17/10:00am 18.3 NNE 9 11 1027.5 - 0.0 - - - - - - -
17/09:30am 18.1 NNE 9 12 1027.3 - 0.0 - - - - - - -
17/09:00am 17.5 NNE 9 11 1027.1 - 0.0 - - - - - - -
17/08:30am 17.7 N 7 9 1026.7 - 0.0 - - - - - - -
17/08:00am 17.0 N 8 10 1026.7 - 0.0 - - - - - - -
17/07:30am 16.5 N 8 10 1026.3 - 0.0 - - - - - - -
17/07:00am 15.8 NNW 8 11 1026.0 - 0.0 - - - - - - -
17/06:30am 15.4 NNW 9 11 1025.6 - 0.0 - - - - - - -
17/06:00am 15.3 N 10 12 1025.6 - 0.0 - - - - - - -
17/05:30am 15.4 N 10 12 1025.4 - 0.0 - - - - - - -
17/05:00am 15.8 N 9 12 1025.2 - 0.0 - - - - - - -
17/04:30am 15.8 N 10 12 1025.4 - 0.0 - - - - - - -
17/04:00am 15.9 N 9 12 1025.5 - 0.0 - - - - - - -
17/03:30am 15.9 NNW 8 11 1025.6 - 0.0 - - - - - - -
17/03:00am 15.9 NNW 8 10 1025.8 - 0.0 - - - - - - -
17/02:30am 15.9 NNW 8 10 1026.0 - 0.0 - - - - - - -
17/02:00am 16.2 N 9 11 1026.2 - 0.0 - - - - - - -
17/01:30am 16.7 N 8 11 1026.5 - 0.0 - - - - - - -
17/01:00am 17.0 NNE 11 13 1026.6 - 0.0 - - - - - - -
17/12:30am 17.1 NNE 10 13 1026.9 - 0.0 - - - - - - -
17/12:00am 17.1 NNE 10 12 1027.1 - 0.0 - - - - - - -
 
Date/Time
EDT
Temp
°C
Wind Pressure Rain since
9am
mm
Weather Cloud Vis
km
Sea
Height
m
Swell
Dir  Spd
kts
Gust
kts
hPa Trend Height
m
Period
s
Dir
16/11:30pm 17.2 NNE 10 12 1027.2 - 0.0 - - - - - - -
16/11:00pm 17.3 NNE 11 13 1027.2 - 0.0 - - - - - - -
16/10:30pm 17.3 NNE 10 12 1027.0 - 0.0 - - - - - - -
16/10:00pm 17.3 NNE 11 13 1027.0 - 0.0 - - - - - - -
16/09:30pm 17.4 NNE 11 15 1026.9 - 0.0 - - - - - - -
16/09:00pm 17.5 NNE 11 14 1026.7 - 0.0 - - - - - - -
16/08:30pm 17.6 NNE 12 15 1026.4 - 0.0 - - - - - - -
16/08:00pm 17.7 NNE 12 15 1026.1 - 0.0 - - - - - - -
16/07:30pm 17.7 NNE 11 13 1025.9 - 0.0 - - - - - - -
16/07:00pm 17.8 NNE 9 11 1025.8 - 0.0 - - - - - - -
16/06:30pm 17.9 NNE 10 13 1025.6 - 0.0 - - - - - - -
16/06:00pm 18.2 NNE 10 13 1025.5 - 0.0 - - - - - - -
16/05:30pm 18.4 NNE 11 13 1025.5 - 0.0 - - - - - - -
16/05:00pm 18.6 NNE 12 14 1025.3 - 0.0 - - - - - - -
16/04:30pm 19.0 NE 11 15 1025.2 - 0.0 - - - - - - -
16/04:00pm 19.2 NE 11 14 1025.3 - 0.0 - - - - - - -
16/03:30pm 19.3 NE 13 16 1025.4 - 0.0 - - - - - - -
16/03:00pm 19.4 NE 12 15 1025.7 - 0.0 - - - - - - -
16/02:30pm 19.4 NE 13 16 1025.9 - 0.0 - - - - - - -
16/02:00pm 19.1 NE 13 15 1026.1 - 0.0 - - - - - - -
16/01:30pm 18.8 NE 12 15 1026.5 - 0.0 - - - - - - -
16/01:00pm 18.5 NE 11 13 1027.0 - 0.0 - - - - - - -
16/12:30pm 18.8 NE 9 11 1027.2 - 0.0 - - - - - - -
16/12:00pm 19.2 NE 7 9 1027.5 - 0.0 - - - - - - -
16/11:30am 19.6 NE 6 8 1027.7 - 0.0 - - - - - - -
16/11:00am 18.7 NNE 5 7 1028.0 - 0.0 - - - - - - -
16/10:30am 18.8 N 4 6 1028.1 - 0.0 - - - - - - -
16/10:00am 18.5 N 3 5 1028.1 - 0.0 - - - - - - -
16/09:30am 17.9 NNW 3 6 1027.9 - 0.0 - - - - - - -
16/09:00am 17.1 SE 2 3 1027.7 - 0.0 - - - - - - -
16/08:30am 16.3 S 3 5 1027.7 - 0.0 - - - - - - -
16/08:00am 16.2 SW 3 4 1027.5 - 0.0 - - - - - - -
16/07:30am 16.1 SW 3 4 1027.1 - 0.0 - - - - - - -
16/07:00am 15.5 SSW 4 4 1026.8 - 0.0 - - - - - - -
16/06:30am 15.6 S 4 4 1026.4 - 0.0 - - - - - - -
16/06:00am 16.0 SW 3 4 1026.1 - 0.0 - - - - - - -
16/05:30am 15.7 WSW 3 4 1025.8 - 0.0 - - - - - - -
16/05:00am 15.8 WSW 3 4 1025.7 - 0.0 - - - - - - -
16/04:30am 15.9 W 3 4 1025.6 - 0.0 - - - - - - -
16/04:00am 15.9 W 4 5 1025.6 - 0.0 - - - - - - -
16/03:30am 16.0 WNW 4 5 1025.7 - 0.0 - - - - - - -
16/03:00am 16.3 WNW 3 4 1025.8 - 0.0 - - - - - - -
16/02:30am 16.1 WNW 3 3 1026.1 - 0.0 - - - - - - -
16/02:00am 16.2 WNW 3 3 1026.2 - 0.0 - - - - - - -
16/01:30am 16.2 NW 3 4 1026.4 - 0.0 - - - - - - -
16/01:00am 16.5 WNW 3 4 1026.6 - 0.0 - - - - - - -
16/12:30am 16.9 NNW 5 7 1026.7 - 0.0 - - - - - - -
16/12:00am 17.2 NNE 7 8 1026.5 - 0.0 - - - - - - -
 
Date/Time
EDT
Temp
°C
Wind Pressure Rain since
9am
mm
Weather Cloud Vis
km
Sea
Height
m
Swell
Dir  Spd
kts
Gust
kts
hPa Trend Height
m
Period
s
Dir
15/11:30pm 17.1 NNE 7 8 1026.6 - 0.0 - - - - - - -
15/11:00pm 17.1 NNE 6 8 1026.5 - 0.0 - - - - - - -
15/10:30pm 17.1 NNE 6 8 1026.4 - 0.0 - - - - - - -
15/10:00pm 17.1 NNE 6 7 1026.3 - 0.0 - - - - - - -
15/09:30pm 16.9 NNE 5 7 1026.3 - 0.0 - - - - - - -
15/09:00pm 17.0 NNE 6 7 1026.0 - 0.0 - - - - - - -
15/08:30pm 16.9 N 6 7 1025.9 - 0.0 - - - - - - -
15/08:00pm 16.9 N 5 7 1025.6 - 0.0 - - - - - - -
15/07:30pm 17.0 NNE 6 8 1025.3 - 0.0 - - - - - - -
15/07:00pm 17.2 NNE 7 9 1024.9 - 0.0 - - - - - - -
15/06:30pm 17.3 NNE 7 8 1024.7 - 0.0 - - - - - - -
15/06:00pm 17.6 NNE 7 9 1024.5 - 0.0 - - - - - - -
15/05:30pm 17.9 NNE 7 9 1024.4 - 0.0 - - - - - - -
15/05:00pm 18.1 NNE 7 9 1024.1 - 0.0 - - - - - - -
15/04:30pm 18.3 NNE 8 10 1024.0 - 0.0 - - - - - - -
15/04:00pm 18.6 NNE 8 10 1024.1 - 0.0 - - - - - - -
15/03:30pm 18.8 NNE 9 12 1024.0 - 0.0 - - - - - - -
15/03:00pm 18.8 NE 10 12 1023.9 - 0.0 - - - - - - -

Other Formats:

Comma delimited format used in spreadsheet applications
http://www.bom.gov.au/fwo/IDN60701/IDN60701.94939.axf

JavaScript Object Notation format (JSON) in row-major order
http://www.bom.gov.au/fwo/IDN60701/IDN60701.94939.json